Time;durP1;ratioP1;P1;durP2;ratioP2;P2;SDS_P1;SDS_P2;PMS_P1;PMS_P2;Temp;Humidity;BMP_temperature;BMP_pressure;BME280_temperature;BME280_humidity;BME280_pressure;Samples;Min_cycle;Max_cycle;Signal;HPM_P1;HPM_P2
2022/09/11 00:01:46;;;;;;;3.83;2.08;;;15.20;99.90;;;;;;4991185;28;20026;-88
2022/09/11 00:04:13;;;;;;;7.20;1.92;;;15.20;99.90;;;;;;4980709;28;20050;-89
2022/09/11 00:06:39;;;;;;;5.32;2.35;;;15.20;99.90;;;;;;4975587;28;20034;-89
2022/09/11 00:09:06;;;;;;;3.47;2.05;;;15.10;99.90;;;;;;4977635;28;20050;-89
2022/09/11 00:11:42;;;;;;;3.10;2.22;;;15.10;99.90;;;;;;4977642;28;20031;-86
2022/09/11 00:14:11;;;;;;;3.33;1.92;;;15.10;99.90;;;;;;4977154;28;20022;-89
2022/09/11 00:16:40;;;;;;;4.38;2.17;;;15.10;99.90;;;;;;4975181;28;20019;-87
2022/09/11 00:19:09;;;;;;;5.50;2.50;;;15.10;99.90;;;;;;4975086;28;20026;-89
2022/09/11 00:21:35;;;;;;;4.88;2.05;;;15.00;99.90;;;;;;4975371;28;20027;-89
2022/09/11 00:24:01;;;;;;;6.75;2.22;;;15.00;99.90;;;;;;4975174;28;20539;-89
2022/09/11 00:26:27;;;;;;;5.65;1.90;;;15.00;99.90;;;;;;4975057;28;20026;-89
2022/09/11 00:28:54;;;;;;;6.15;2.38;;;14.90;99.90;;;;;;4975041;28;20030;-89
2022/09/11 00:31:23;;;;;;;3.67;2.15;;;14.90;99.90;;;;;;4975250;28;20031;-89
2022/09/11 00:33:50;;;;;;;4.65;2.38;;;14.80;99.90;;;;;;4975009;28;20081;-89
2022/09/11 00:36:18;;;;;;;4.05;2.20;;;14.80;99.90;;;;;;4974879;28;20054;-88
2022/09/11 00:38:45;;;;;;;6.75;1.90;;;14.70;99.90;;;;;;4975032;28;20059;-88
2022/09/11 00:41:24;;;;;;;6.13;2.30;;;14.70;99.90;;;;;;4974701;28;20027;-88
2022/09/11 00:43:55;;;;;;;5.82;2.72;;;14.60;99.90;;;;;;4974820;28;20043;-89
2022/09/11 00:46:36;;;;;;;7.43;1.95;;;14.50;99.90;;;;;;4974698;28;20037;-88
2022/09/11 00:49:15;;;;;;;3.22;2.40;;;14.50;99.90;;;;;;4974978;28;20034;-89
2022/09/11 00:51:45;;;;;;;5.32;2.15;;;14.40;99.90;;;;;;4974832;28;20053;-89
2022/09/11 00:54:13;;;;;;;2.45;2.00;;;14.30;99.90;;;;;;4974892;28;20058;-89
2022/09/11 00:56:40;;;;;;;4.25;2.22;;;14.30;99.90;;;;;;4974542;28;20027;-89
2022/09/11 00:59:07;;;;;;;10.48;2.70;;;14.20;99.90;;;;;;4974675;28;20050;-89
2022/09/11 01:01:33;;;;;;;5.75;2.65;;;14.10;99.90;;;;;;4974771;28;20125;-89
2022/09/11 01:04:04;;;;;;;8.32;2.17;;;14.00;99.90;;;;;;4974774;28;20452;-89
2022/09/11 01:06:31;;;;;;;11.20;2.08;;;14.00;99.90;;;;;;4974150;28;20030;-88
2022/09/11 01:08:58;;;;;;;6.40;2.40;;;14.00;99.90;;;;;;4974285;28;20169;-89
2022/09/11 01:11:53;;;;;;;5.15;2.50;;;13.90;99.90;;;;;;4974131;28;20034;-89
2022/09/11 01:14:29;;;;;;;6.18;2.30;;;13.80;99.90;;;;;;4974465;28;20026;-89
2022/09/11 01:17:07;;;;;;;3.60;2.20;;;13.70;99.90;;;;;;4974180;28;20034;-89
2022/09/11 01:19:42;;;;;;;7.43;2.60;;;13.70;99.90;;;;;;4973984;28;20066;-89
2022/09/11 01:22:38;;;;;;;5.82;2.25;;;13.60;99.90;;;;;;4974092;28;20019;-89
2022/09/11 01:25:17;;;;;;;5.63;2.40;;;13.60;99.90;;;;;;4973748;28;20042;-88
2022/09/11 01:27:47;;;;;;;7.78;2.58;;;13.50;99.90;;;;;;4973784;28;20043;-89
2022/09/11 01:30:21;;;;;;;7.03;2.47;;;13.40;99.90;;;;;;4974705;28;20031;-89
2022/09/11 01:33:13;;;;;;;5.05;2.45;;;13.30;99.90;;;;;;4974181;28;20031;-88
2022/09/11 01:36:06;;;;;;;2.95;2.53;;;13.30;99.90;;;;;;4962861;28;20062;-89
2022/09/11 01:38:47;;;;;;;3.35;2.33;;;13.30;99.90;;;;;;4973854;28;20030;-89
2022/09/11 01:41:16;;;;;;;5.60;2.53;;;13.20;99.90;;;;;;4973826;28;20106;-89
2022/09/11 01:43:56;;;;;;;7.15;2.67;;;13.20;99.90;;;;;;4973865;28;20081;-89
2022/09/11 01:46:25;;;;;;;6.95;2.53;;;13.10;99.90;;;;;;4987634;28;20078;-88
2022/09/11 01:49:09;;;;;;;6.45;2.50;;;13.10;99.90;;;;;;4986921;28;20022;-89
2022/09/11 01:51:39;;;;;;;6.38;2.50;;;13.00;99.90;;;;;;4981918;28;20023;-89
2022/09/11 01:54:10;;;;;;;9.45;2.70;;;13.00;99.90;;;;;;4979396;28;20023;-88
2022/09/11 01:56:41;;;;;;;4.40;2.50;;;13.00;99.90;;;;;;4978231;28;20054;-87
2022/09/11 01:59:13;;;;;;;3.20;2.60;;;12.90;99.90;;;;;;4974693;28;20035;-88
2022/09/11 02:01:43;;;;;;;6.70;3.17;;;12.90;99.90;;;;;;4974356;28;20387;-88
2022/09/11 02:04:12;;;;;;;;;;;12.80;99.90;;;;;;4974508;28;20412;-89
2022/09/11 02:06:58;;;;;;;11.65;2.55;;;12.80;99.90;;;;;;4973627;28;19910;-89
2022/09/11 02:09:30;;;;;;;4.65;2.80;;;12.70;99.90;;;;;;4973598;28;20039;-89
2022/09/11 02:11:58;;;;;;;5.10;2.78;;;12.70;99.90;;;;;;4973989;28;20425;-89
2022/09/11 02:14:35;;;;;;;2.60;2.40;;;12.60;99.90;;;;;;4973663;28;20089;-89
2022/09/11 02:17:23;;;;;;;3.83;2.90;;;12.60;99.90;;;;;;4974113;28;20290;-89
2022/09/11 02:19:52;;;;;;;3.80;3.03;;;12.60;99.90;;;;;;4977553;28;20485;-89
2022/09/11 02:22:19;;;;;;;4.97;3.03;;;12.50;99.90;;;;;;4977149;28;20485;-89
2022/09/11 02:24:45;;;;;;;3.85;2.70;;;12.40;99.90;;;;;;4977026;28;20780;-89
2022/09/11 02:27:16;;;;;;;4.30;2.90;;;12.40;99.90;;;;;;4977446;28;20122;-89
2022/09/11 02:29:42;;;;;;;6.38;2.63;;;12.40;99.90;;;;;;4977115;28;20122;-89
2022/09/11 02:32:09;;;;;;;6.82;2.78;;;12.30;99.90;;;;;;4977477;28;20057;-89
2022/09/11 02:34:38;;;;;;;4.57;2.65;;;12.30;99.90;;;;;;4980729;28;20396;-89
2022/09/11 02:37:25;;;;;;;5.55;2.90;;;12.20;99.90;;;;;;4982590;28;20174;-88
2022/09/11 02:40:17;;;;;;;7.93;2.72;;;12.20;99.90;;;;;;4977611;28;20166;-88
2022/09/11 02:43:16;;;;;;;8.75;3.05;;;12.20;99.90;;;;;;4969158;28;20034;-88
2022/09/11 02:46:08;;;;;;;3.15;2.50;;;12.10;99.90;;;;;;4976824;28;20058;-89
2022/09/11 02:48:49;;;;;;;4.15;2.78;;;12.10;99.90;;;;;;4963460;28;20027;-89
2022/09/11 02:51:45;;;;;;;4.97;3.05;;;12.10;99.90;;;;;;4976758;28;20038;-89
2022/09/11 02:54:27;;;;;;;9.65;2.97;;;12.10;99.90;;;;;;4976866;28;20038;-89
2022/09/11 02:57:08;;;;;;;6.82;3.05;;;12.00;99.90;;;;;;4977000;28;20110;-89
2022/09/11 03:00:00;;;;;;;5.50;2.75;;;12.00;99.90;;;;;;4976837;28;20496;-89
2022/09/11 03:02:30;;;;;;;7.80;3.30;;;12.00;99.90;;;;;;4976789;28;20136;-89
2022/09/11 03:04:56;;;;;;;9.90;4.30;;;12.00;99.90;;;;;;4976344;28;20069;-89
2022/09/11 03:07:24;;;;;;;6.63;4.28;;;11.90;99.90;;;;;;4976350;28;20345;-89
2022/09/11 03:09:50;;;;;;;4.68;3.10;;;11.90;99.90;;;;;;4976617;28;20038;-90
2022/09/11 03:12:16;;;;;;;6.10;3.30;;;11.90;99.90;;;;;;4976562;28;20054;-89
2022/09/11 03:14:42;;;;;;;8.95;3.58;;;11.90;99.90;;;;;;4976650;28;20135;-89
2022/09/11 03:17:08;;;;;;;6.35;3.30;;;11.90;99.90;;;;;;4976431;28;20035;-89
2022/09/11 03:19:34;;;;;;;5.28;3.00;;;11.90;99.90;;;;;;4976664;28;20026;-89
2022/09/11 03:22:01;;;;;;;7.93;3.40;;;11.80;99.90;;;;;;4976238;28;20514;-89
2022/09/11 03:24:27;;;;;;;5.45;3.53;;;11.80;99.90;;;;;;4976576;28;20524;-89
2022/09/11 03:26:53;;;;;;;10.63;4.78;;;11.70;99.90;;;;;;4976657;28;20023;-90
2022/09/11 03:29:19;;;;;;;12.10;5.65;;;11.70;99.90;;;;;;4976627;28;20515;-89
2022/09/11 03:31:45;;;;;;;20.25;5.50;;;11.70;99.90;;;;;;4993440;28;20015;-88
2022/09/11 03:34:11;;;;;;;13.90;5.90;;;11.70;99.90;;;;;;4986851;28;20138;-88
2022/09/11 03:36:36;;;;;;;13.65;5.40;;;11.70;99.90;;;;;;4976240;28;20027;-89
2022/09/11 03:39:02;;;;;;;43.47;6.30;;;11.70;99.90;;;;;;4976264;28;20484;-89
2022/09/11 03:41:28;;;;;;;17.65;5.85;;;11.70;99.90;;;;;;4976129;28;20499;-89
2022/09/11 03:43:54;;;;;;;15.75;5.63;;;11.70;99.90;;;;;;4975925;28;20046;-89
2022/09/11 03:46:19;;;;;;;11.75;5.95;;;11.70;99.90;;;;;;4975649;28;20034;-89
2022/09/11 03:48:45;;;;;;;17.00;6.57;;;11.60;99.90;;;;;;4975766;28;20031;-89
2022/09/11 03:51:16;;;;;;;20.33;6.60;;;11.70;99.90;;;;;;4976017;28;20038;-89
2022/09/11 03:53:43;;;;;;;18.13;6.75;;;11.60;99.90;;;;;;4975867;28;20077;-89
2022/09/11 03:56:09;;;;;;;22.35;6.78;;;11.60;99.90;;;;;;4975537;28;20035;-88
2022/09/11 03:58:35;;;;;;;16.95;6.30;;;11.60;99.90;;;;;;4975777;28;20491;-89
2022/09/11 04:01:08;;;;;;;17.73;7.57;;;11.50;99.90;;;;;;4975954;28;20113;-89
2022/09/11 04:03:33;;;;;;;58.72;6.53;;;11.50;99.90;;;;;;4975408;28;20029;-89
2022/09/11 04:06:01;;;;;;;25.98;6.25;;;11.50;99.90;;;;;;4975058;28;20488;-89
2022/09/11 04:08:32;;;;;;;39.65;7.43;;;11.50;99.90;;;;;;4975185;28;20043;-89
2022/09/11 04:10:59;;;;;;;;;;;11.60;99.90;;;;;;4975810;28;20121;-89
2022/09/11 04:13:31;;;;;;;58.35;6.07;;;11.50;99.90;;;;;;4975281;28;19906;-89
2022/09/11 04:15:58;;;;;;;12.80;5.63;;;11.50;99.90;;;;;;4975633;28;20022;-89
2022/09/11 04:18:24;;;;;;;15.88;6.00;;;11.50;99.90;;;;;;4974927;28;20034;-88
2022/09/11 04:20:50;;;;;;;11.38;6.50;;;11.50;99.90;;;;;;4975342;28;20023;-89
2022/09/11 04:23:15;;;;;;;16.30;6.40;;;11.50;99.90;;;;;;4975078;28;20077;-89
2022/09/11 04:25:41;;;;;;;9.32;5.80;;;11.50;99.90;;;;;;4975005;28;20053;-89
2022/09/11 04:28:07;;;;;;;15.65;6.28;;;11.50;99.90;;;;;;4975148;28;20117;-89
2022/09/11 04:30:37;;;;;;;27.88;7.05;;;11.50;99.90;;;;;;4974961;28;20366;-88
2022/09/11 04:33:04;;;;;;;26.77;8.13;;;11.50;99.90;;;;;;4974914;28;20106;-89
2022/09/11 04:35:30;;;;;;;47.75;7.72;;;11.50;99.90;;;;;;4974758;28;20085;-89
2022/09/11 04:37:56;;;;;;;30.35;6.63;;;11.50;99.90;;;;;;4975250;28;20400;-89
2022/09/11 04:40:22;;;;;;;51.35;6.90;;;11.50;99.90;;;;;;4974502;28;20066;-88
2022/09/11 04:42:47;;;;;;;11.52;6.40;;;11.50;99.90;;;;;;4977808;28;20093;-88
2022/09/11 04:45:13;;;;;;;15.80;6.30;;;11.50;99.90;;;;;;4981935;28;20047;-89
2022/09/11 04:47:39;;;;;;;24.40;5.95;;;11.60;99.90;;;;;;4982194;28;20033;-89
2022/09/11 04:50:06;;;;;;;30.00;6.68;;;11.60;99.90;;;;;;4980394;28;20031;-89
2022/09/11 04:52:33;;;;;;;16.38;6.30;;;11.60;99.90;;;;;;4979103;28;20022;-89
2022/09/11 04:54:59;;;;;;;13.50;5.97;;;11.50;99.90;;;;;;4977388;28;20124;-89
2022/09/11 04:57:24;;;;;;;16.85;6.35;;;11.50;99.90;;;;;;4975642;28;20023;-88
2022/09/11 04:59:51;;;;;;;23.65;6.75;;;11.50;99.90;;;;;;4975552;28;20057;-89
2022/09/11 05:02:17;;;;;;;31.80;6.50;;;11.50;99.90;;;;;;4975878;28;20027;-89
2022/09/11 05:04:43;;;;;;;15.50;5.95;;;11.50;99.90;;;;;;4976035;28;20039;-89
2022/09/11 05:07:13;;;;;;;24.35;6.30;;;11.50;99.90;;;;;;4978440;28;20053;-89
2022/09/11 05:09:39;;;;;;;60.03;6.43;;;11.50;99.90;;;;;;4978388;28;20030;-89
2022/09/11 05:12:04;;;;;;;16.73;5.68;;;11.50;99.90;;;;;;4978414;28;20036;-88
2022/09/11 05:14:34;;;;;;;39.40;4.93;;;11.50;99.90;;;;;;4978658;28;20392;-88
2022/09/11 05:17:00;;;;;;;14.13;6.03;;;11.50;99.90;;;;;;4993492;28;20049;-88
2022/09/11 05:19:26;;;;;;;52.20;6.82;;;11.50;99.90;;;;;;4984770;28;20030;-88
2022/09/11 05:21:51;;;;;;;12.07;7.22;;;11.50;99.90;;;;;;4978144;28;20072;-88
2022/09/11 05:24:17;;;;;;;14.75;5.40;;;11.40;99.90;;;;;;4978202;28;20444;-88
2022/09/11 05:26:43;;;;;;;23.02;6.47;;;11.40;99.90;;;;;;4981547;28;20041;-88
2022/09/11 05:29:13;;;;;;;9.43;5.70;;;11.40;99.90;;;;;;4978513;28;20062;-88
2022/09/11 05:31:39;;;;;;;10.75;6.05;;;11.40;99.90;;;;;;4977495;28;20249;-88
2022/09/11 05:34:06;;;;;;;17.17;6.40;;;11.50;99.90;;;;;;4977467;28;20058;-88
2022/09/11 05:36:32;;;;;;;32.03;7.03;;;11.50;99.90;;;;;;4977396;28;20041;-88
2022/09/11 05:38:58;;;;;;;36.85;5.97;;;11.50;99.90;;;;;;4977646;28;20029;-87
2022/09/11 05:41:24;;;;;;;27.00;6.18;;;11.50;99.90;;;;;;4977345;28;20030;-88
2022/09/11 05:43:53;;;;;;;22.73;5.75;;;11.50;99.90;;;;;;4977284;28;20381;-88
2022/09/11 05:46:20;;;;;;;18.33;6.63;;;11.50;99.90;;;;;;4976898;28;20030;-88
2022/09/11 05:48:46;;;;;;;12.35;6.85;;;11.50;99.90;;;;;;4977164;28;20018;-88
2022/09/11 05:51:18;;;;;;;14.13;5.95;;;11.50;99.90;;;;;;4976669;28;20031;-88
2022/09/11 05:53:45;;;;;;;26.70;6.05;;;11.60;99.90;;;;;;4976742;28;20480;-87
2022/09/11 05:56:15;;;;;;;18.38;6.00;;;11.60;99.90;;;;;;4976740;28;20030;-88
2022/09/11 05:58:42;;;;;;;15.35;5.70;;;11.60;99.90;;;;;;4976839;28;20538;-88
2022/09/11 06:01:11;;;;;;;28.98;5.95;;;11.60;99.90;;;;;;4976526;28;20037;-88
2022/09/11 06:03:37;;;;;;;15.52;6.78;;;11.60;99.90;;;;;;4976621;28;20433;-88
2022/09/11 06:06:05;;;;;;;13.75;6.22;;;11.60;99.90;;;;;;4976659;28;20132;-87
2022/09/11 06:08:33;;;;;;;19.75;6.20;;;11.70;99.90;;;;;;4993855;28;20264;-88
2022/09/11 06:11:00;;;;;;;16.13;5.30;;;11.70;99.90;;;;;;4976612;28;20030;-88
2022/09/11 06:13:32;;;;;;;32.42;5.28;;;11.70;99.90;;;;;;4976613;28;20472;-88
2022/09/11 06:15:58;;;;;;;20.27;5.13;;;11.70;99.90;;;;;;4976302;28;20034;-87
2022/09/11 06:18:25;;;;;;;6.90;4.07;;;11.70;99.90;;;;;;4976443;28;20033;-87
2022/09/11 06:21:02;;;;;;;10.55;4.78;;;11.70;99.90;;;;;;4976306;28;20026;-88
2022/09/11 06:23:28;;;;;;;16.65;4.50;;;11.70;99.90;;;;;;4976507;28;20036;-86
2022/09/11 06:26:01;;;;;;;17.13;4.55;;;11.70;99.90;;;;;;4976383;28;20030;-88
2022/09/11 06:28:27;;;;;;;9.80;4.20;;;11.70;99.90;;;;;;4976445;28;20129;-88
2022/09/11 06:30:53;;;;;;;11.98;4.10;;;11.70;99.90;;;;;;4976374;28;20109;-88
2022/09/11 06:33:19;;;;;;;13.77;4.55;;;11.70;99.90;;;;;;4976528;28;20392;-88
2022/09/11 06:35:58;;;;;;;11.93;4.28;;;11.70;99.90;;;;;;4976470;28;20031;-88
2022/09/11 06:38:24;;;;;;;10.27;4.32;;;11.70;99.90;;;;;;4977069;28;20030;-88
2022/09/11 06:40:50;;;;;;;13.77;4.10;;;11.80;99.90;;;;;;4976566;28;20122;-88
2022/09/11 06:43:16;;;;;;;44.72;5.10;;;11.70;99.90;;;;;;4976478;28;20062;-89
2022/09/11 06:45:42;;;;;;;11.70;4.18;;;11.80;99.90;;;;;;4976126;28;20042;-88
2022/09/11 06:48:08;;;;;;;9.77;4.13;;;11.80;99.90;;;;;;4976081;28;20018;-87
2022/09/11 06:50:39;;;;;;;20.80;4.38;;;11.80;99.90;;;;;;4976330;28;20042;-89
2022/09/11 06:53:06;;;;;;;14.52;4.85;;;11.80;99.90;;;;;;4976437;28;20022;-89
2022/09/11 06:55:32;;;;;;;14.48;4.30;;;11.80;99.90;;;;;;4976138;28;20514;-89
2022/09/11 06:57:59;;;;;;;7.32;4.53;;;11.90;99.90;;;;;;4976631;28;20034;-87
2022/09/11 07:00:25;;;;;;;44.72;5.13;;;11.90;99.90;;;;;;4977410;28;20488;-88
2022/09/11 07:02:55;;;;;;;8.30;4.57;;;11.90;99.90;;;;;;4998460;28;20011;-88
2022/09/11 07:05:21;;;;;;;12.55;4.00;;;11.90;99.90;;;;;;4984038;28;20102;-90
2022/09/11 07:07:49;;;;;;;16.45;4.38;;;11.90;99.90;;;;;;4980435;28;20046;-89
2022/09/11 07:10:15;;;;;;;6.13;3.72;;;11.90;99.90;;;;;;4983672;28;20034;-88
2022/09/11 07:12:44;;;;;;;12.32;4.03;;;12.00;99.90;;;;;;4982840;28;20042;-89
2022/09/11 07:15:10;;;;;;;79.20;5.88;;;12.00;99.90;;;;;;4983173;28;20038;-88
2022/09/11 07:17:36;;;;;;;45.30;5.35;;;12.00;99.90;;;;;;4981197;28;20118;-88
2022/09/11 07:20:07;;;;;;;7.38;4.10;;;12.00;99.90;;;;;;4979799;28;20022;-89
2022/09/11 07:22:35;;;;;;;;;;;12.10;99.90;;;;;;4981126;28;20019;-89
2022/09/11 07:25:01;;;;;;;11.02;5.22;;;12.00;99.90;;;;;;4982986;28;19930;-89
2022/09/11 07:27:30;;;;;;;19.85;5.00;;;12.10;99.90;;;;;;4979938;28;20032;-89
2022/09/11 07:29:56;;;;;;;43.17;5.70;;;12.10;99.90;;;;;;4979855;28;20077;-89
2022/09/11 07:32:22;;;;;;;8.18;4.93;;;12.10;99.90;;;;;;4980297;28;20037;-88
2022/09/11 07:34:48;;;;;;;79.47;6.25;;;12.20;99.90;;;;;;4980395;28;20031;-90
2022/09/11 07:37:14;;;;;;;100.25;7.80;;;12.20;99.90;;;;;;4981854;28;20564;-88
2022/09/11 07:39:40;;;;;;;129.45;8.95;;;12.20;99.90;;;;;;4984636;28;20030;-88
2022/09/11 07:42:06;;;;;;;66.78;7.00;;;12.20;99.90;;;;;;4987367;28;20027;-89
2022/09/11 07:44:33;;;;;;;47.80;5.22;;;12.10;99.90;;;;;;4987205;28;20385;-88
2022/09/11 07:46:59;;;;;;;19.88;5.22;;;12.10;99.90;;;;;;4988901;28;20023;-88
2022/09/11 07:49:26;;;;;;;6.32;4.88;;;12.10;99.90;;;;;;4986649;28;20033;-88
2022/09/11 07:51:53;;;;;;;7.13;4.60;;;12.20;99.90;;;;;;4987247;28;20026;-88
2022/09/11 07:54:19;;;;;;;61.03;5.88;;;12.20;99.90;;;;;;4983356;28;20026;-88
2022/09/11 07:56:45;;;;;;;16.98;5.07;;;12.30;99.90;;;;;;4981650;28;20026;-88
2022/09/11 07:59:12;;;;;;;40.72;5.07;;;12.30;99.90;;;;;;4979800;28;20023;-89
2022/09/11 08:01:38;;;;;;;43.13;5.45;;;12.30;99.90;;;;;;4983831;28;20034;-89
2022/09/11 08:04:06;;;;;;;28.25;5.10;;;12.30;99.90;;;;;;4981102;28;20060;-88
2022/09/11 08:06:34;;;;;;;12.18;5.38;;;12.30;99.90;;;;;;4979748;28;20030;-88
2022/09/11 08:09:02;;;;;;;49.65;6.78;;;12.30;99.90;;;;;;4979390;28;20053;-88
2022/09/11 08:11:30;;;;;;;21.73;5.53;;;12.30;99.90;;;;;;4979271;28;20057;-88
2022/09/11 08:13:56;;;;;;;10.65;5.85;;;12.30;99.90;;;;;;4979264;28;20061;-87
2022/09/11 08:16:24;;;;;;;17.20;5.93;;;12.40;99.90;;;;;;4979301;28;20034;-88
2022/09/11 08:18:50;;;;;;;9.82;6.40;;;12.50;99.90;;;;;;4979093;28;20026;-89
2022/09/11 08:21:17;;;;;;;15.07;6.00;;;12.50;99.90;;;;;;4978741;28;20030;-88
2022/09/11 08:23:44;;;;;;;11.35;6.45;;;12.60;99.90;;;;;;4979907;28;20106;-88
2022/09/11 08:26:12;;;;;;;16.55;6.30;;;12.60;99.90;;;;;;4978740;28;20046;-88
2022/09/11 08:28:41;;;;;;;12.50;6.97;;;12.70;99.90;;;;;;4978940;28;20035;-88
2022/09/11 08:31:07;;;;;;;9.73;6.28;;;12.80;99.90;;;;;;4978466;28;20500;-88
2022/09/11 08:33:33;;;;;;;10.73;6.95;;;12.80;99.90;;;;;;4978795;28;20033;-90
2022/09/11 08:36:01;;;;;;;19.52;7.07;;;12.90;99.90;;;;;;4978481;28;20022;-89
2022/09/11 08:38:28;;;;;;;10.13;6.80;;;13.00;99.90;;;;;;4978639;28;20041;-88
2022/09/11 08:40:56;;;;;;;13.50;5.65;;;13.00;99.90;;;;;;4996027;28;20023;-89
2022/09/11 08:43:34;;;;;;;9.48;5.70;;;13.00;99.90;;;;;;4996784;28;20031;-89
2022/09/11 08:46:05;;;;;;;11.25;6.90;;;13.00;99.90;;;;;;4984315;28;20053;-89
2022/09/11 08:49:15;;;;;;;11.00;6.90;;;13.10;99.90;;;;;;4995158;28;20098;-89
2022/09/11 08:51:43;;;;;;;14.38;7.30;;;13.10;99.90;;;;;;4969408;28;20039;-86
2022/09/11 08:54:26;;;;;;;11.38;5.90;;;13.10;99.90;;;;;;4977955;28;20034;-87
2022/09/11 08:57:01;;;;;;;14.00;5.80;;;13.20;99.90;;;;;;4977759;28;20034;-88
2022/09/11 08:59:59;;;;;;;13.70;6.68;;;13.20;99.90;;;;;;4977990;28;20030;-88
2022/09/11 09:02:56;;;;;;;18.88;7.10;;;13.30;99.90;;;;;;4977789;28;20045;-89
2022/09/11 09:06:03;;;;;;;15.68;6.47;;;13.40;99.90;;;;;;4977832;28;20607;-88
2022/09/11 09:08:52;;;;;;;15.05;6.65;;;13.40;99.90;;;;;;4918806;29;20043;-88
2022/09/11 09:11:35;;;;;;;14.35;6.50;;;13.50;99.90;;;;;;4919228;29;20060;-88
2022/09/11 09:14:09;;;;;;;14.00;6.38;;;13.60;99.90;;;;;;4919189;29;20499;-89
2022/09/11 09:16:41;;;;;;;14.30;6.40;;;13.70;99.90;;;;;;4919158;29;20039;-88
2022/09/11 09:19:13;;;;;;;11.30;6.25;;;13.80;99.90;;;;;;4918820;29;20139;-88
2022/09/11 09:21:48;;;;;;;12.00;6.15;;;13.90;99.90;;;;;;4919052;29;20126;-88
2022/09/11 09:24:18;;;;;;;16.25;6.72;;;14.00;99.90;;;;;;4918440;29;20063;-88
2022/09/11 09:26:49;;;;;;;13.52;6.68;;;14.10;99.90;;;;;;4918633;29;20035;-88
2022/09/11 09:29:23;;;;;;;17.05;7.45;;;14.20;99.90;;;;;;4918985;29;20019;-87
2022/09/11 09:32:04;;;;;;;19.88;7.03;;;14.30;99.90;;;;;;4918850;29;20078;-88
2022/09/11 09:34:36;;;;;;;14.18;6.30;;;14.40;99.90;;;;;;4918877;29;20573;-88
2022/09/11 09:37:14;;;;;;;14.55;6.60;;;14.50;99.90;;;;;;4918609;29;20050;-87
2022/09/11 09:39:39;;;;;;;20.45;7.68;;;14.60;99.90;;;;;;4918606;29;20063;-87
2022/09/11 09:42:38;;;;;;;14.57;6.97;;;14.80;99.90;;;;;;4918637;29;20127;-88
2022/09/11 09:45:35;;;;;;;11.52;6.80;;;14.90;99.90;;;;;;4944748;28;20390;-88
2022/09/11 09:48:02;;;;;;;12.73;7.15;;;15.00;99.90;;;;;;4977765;28;20022;-88
2022/09/11 09:50:38;;;;;;;14.88;7.43;;;15.00;99.90;;;;;;4976655;28;20026;-89
2022/09/11 09:53:31;;;;;;;15.60;7.80;;;15.10;99.90;;;;;;4977127;28;20496;-88
2022/09/11 09:56:09;;;;;;;23.58;9.15;;;15.20;99.90;;;;;;4976762;28;20112;-88
2022/09/11 09:58:51;;;;;;;17.95;8.38;;;15.30;99.90;;;;;;4977144;28;20033;-89
2022/09/11 10:01:42;;;;;;;22.35;10.60;;;15.40;99.90;;;;;;4975754;28;20033;-89
2022/09/11 10:04:12;;;;;;;23.67;9.68;;;15.50;99.90;;;;;;4976412;28;20028;-89
2022/09/11 10:06:37;;;;;;;19.77;8.75;;;15.60;99.90;;;;;;4976717;28;20578;-88
2022/09/11 10:09:03;;;;;;;23.13;8.75;;;15.70;99.90;;;;;;4973214;28;20134;-88
2022/09/11 10:11:29;;;;;;;25.88;10.32;;;15.80;99.90;;;;;;4973477;28;20034;-88
2022/09/11 10:13:56;;;;;;;25.08;9.18;;;15.90;99.90;;;;;;4973311;28;20027;-87
2022/09/11 10:16:28;;;;;;;19.85;9.20;;;16.10;99.90;;;;;;4973117;28;20417;-87
2022/09/11 10:18:57;;;;;;;18.30;9.23;;;16.30;99.90;;;;;;4973058;28;20030;-88
2022/09/11 10:21:32;;;;;;;19.55;9.93;;;16.60;99.90;;;;;;4973224;28;20023;-88
2022/09/11 10:24:08;;;;;;;19.20;10.40;;;16.80;99.90;;;;;;4972960;28;20030;-87
2022/09/11 10:26:53;;;;;;;20.90;10.65;;;17.00;99.90;;;;;;4973190;28;20054;-87
2022/09/11 10:29:23;;;;;;;17.25;8.80;;;17.30;99.90;;;;;;4973784;28;20023;-88
2022/09/11 10:31:57;;;;;;;21.60;10.38;;;17.60;99.90;;;;;;4975813;28;20510;-88
2022/09/11 10:34:25;;;;;;;23.75;10.38;;;17.90;99.90;;;;;;4983338;28;20037;-89
2022/09/11 10:36:59;;;;;;;17.02;9.75;;;18.10;99.90;;;;;;4989615;28;20058;-88
2022/09/11 10:39:27;;;;;;;16.60;9.88;;;18.40;99.90;;;;;;4979059;28;20143;-89
2022/09/11 10:41:58;;;;;;;19.00;9.35;;;18.60;99.90;;;;;;4983109;28;20169;-87
2022/09/11 10:44:27;;;;;;;19.35;9.38;;;18.80;99.90;;;;;;4982433;28;20030;-88
2022/09/11 10:47:14;;;;;;;18.45;9.90;;;19.00;99.90;;;;;;4981013;28;20030;-89
2022/09/11 10:49:41;;;;;;;16.63;9.68;;;19.10;99.90;;;;;;4981229;28;20022;-89
2022/09/11 10:52:07;;;;;;;19.52;9.18;;;19.20;99.90;;;;;;4980205;28;20037;-90
2022/09/11 10:54:38;;;;;;;19.67;9.10;;;19.40;99.90;;;;;;4977654;28;20113;-89
2022/09/11 10:57:21;;;;;;;17.45;9.70;;;19.50;99.90;;;;;;4978814;28;20087;-89
2022/09/11 11:00:13;;;;;;;16.63;9.05;;;19.70;99.90;;;;;;4983540;28;20122;-89
2022/09/11 11:02:44;;;;;;;18.80;8.95;;;19.80;99.90;;;;;;4980313;28;20494;-90
2022/09/11 11:05:16;;;;;;;;;;;19.80;99.90;;;;;;4980299;28;20047;-89
2022/09/11 11:07:54;;;;;;;21.77;10.23;;;19.80;99.90;;;;;;4984537;28;19914;-89
2022/09/11 11:10:39;;;;;;;16.58;9.93;;;19.60;99.90;;;;;;4981915;28;20035;-89
2022/09/11 11:13:36;;;;;;;17.95;10.52;;;19.50;99.90;;;;;;4979765;28;20034;-89
2022/09/11 11:16:15;;;;;;;21.17;10.65;;;19.50;99.90;;;;;;4977782;28;20161;-90
2022/09/11 11:19:16;;;;;;;16.60;10.05;;;19.70;99.90;;;;;;4977526;28;20026;-89
2022/09/11 11:22:10;;;;;;;15.00;8.80;;;19.70;99.90;;;;;;4977019;28;20386;-88
2022/09/11 11:24:51;;;;;;;15.50;8.65;;;19.70;99.90;;;;;;4976467;28;20066;-88
2022/09/11 11:27:31;;;;;;;13.70;8.73;;;19.90;99.90;;;;;;4976219;28;20082;-88
2022/09/11 11:30:27;;;;;;;16.02;8.57;;;19.90;99.90;;;;;;4976511;28;20038;-88
2022/09/11 11:33:17;;;;;;;16.92;8.73;;;19.80;99.90;;;;;;4976239;28;20564;-87
2022/09/11 11:35:58;;;;;;;15.70;7.60;;;19.90;99.90;;;;;;4976475;28;20158;-88
2022/09/11 11:38:34;;;;;;;13.52;8.02;;;19.90;99.90;;;;;;4976932;28;20102;-90
2022/09/11 11:41:17;;;;;;;15.75;7.95;;;19.90;99.90;;;;;;4976329;28;20031;-88
2022/09/11 11:43:47;;;;;;;14.13;7.20;;;19.80;99.90;;;;;;4975880;28;20035;-87
2022/09/11 11:46:22;;;;;;;14.10;6.78;;;19.80;99.90;;;;;;4975425;28;20382;-88
2022/09/11 11:48:48;;;;;;;12.50;6.65;;;19.70;99.90;;;;;;4975228;28;20030;-88
2022/09/11 11:51:18;;;;;;;12.50;6.90;;;19.80;99.90;;;;;;4975311;28;20038;-87
2022/09/11 11:54:06;;;;;;;9.77;6.20;;;19.90;99.90;;;;;;4975846;28;20026;-88
2022/09/11 11:56:52;;;;;;;11.05;6.60;;;19.90;99.90;;;;;;4976979;28;20054;-87
2022/09/11 11:59:36;;;;;;;10.55;7.15;;;20.00;99.90;;;;;;4975761;28;20054;-90
2022/09/11 12:02:08;;;;;;;11.95;7.20;;;20.10;99.90;;;;;;4974967;28;20047;-88
2022/09/11 12:04:58;;;;;;;13.20;7.97;;;20.10;99.90;;;;;;4975408;28;20045;-88
2022/09/11 12:07:33;;;;;;;13.35;6.97;;;20.10;99.90;;;;;;4975428;28;20107;-89
2022/09/11 12:10:03;;;;;;;12.93;7.35;;;20.20;99.90;;;;;;4976496;28;20050;-89
2022/09/11 12:12:42;;;;;;;13.65;7.60;;;20.40;99.90;;;;;;4977255;28;20077;-89
2022/09/11 12:15:28;;;;;;;11.95;6.50;;;20.60;99.90;;;;;;4976013;28;20035;-90
2022/09/11 12:18:22;;;;;;;11.38;7.10;;;20.80;99.90;;;;;;4975404;28;20027;-88
2022/09/11 12:20:48;;;;;;;15.15;6.78;;;20.70;99.90;;;;;;4978984;28;20051;-87
2022/09/11 12:23:49;;;;;;;11.63;7.22;;;20.70;99.90;;;;;;4985051;28;20070;-89
2022/09/11 12:26:21;;;;;;;12.52;6.75;;;20.60;99.90;;;;;;4907848;29;20425;-87
2022/09/11 12:28:47;;;;;;;10.48;6.00;;;20.70;99.90;;;;;;4900389;29;20453;-87
2022/09/11 12:31:16;;;;;;;10.52;6.00;;;20.80;99.90;;;;;;4901298;29;20028;-87
2022/09/11 12:33:43;;;;;;;13.32;6.28;;;20.90;99.90;;;;;;4904550;29;20038;-88
2022/09/11 12:36:17;;;;;;;12.23;6.18;;;20.90;99.90;;;;;;4901411;29;20040;-86
2022/09/11 12:38:51;;;;;;;11.68;7.10;;;20.90;99.90;;;;;;4900507;29;20087;-88
2022/09/11 12:41:34;;;;;;;12.68;5.78;;;20.90;99.90;;;;;;4900636;29;20032;-88
2022/09/11 12:44:04;;;;;;;9.73;5.05;;;20.90;99.90;;;;;;4900545;29;20063;-88
2022/09/11 12:46:29;;;;;;;6.90;3.70;;;21.00;99.90;;;;;;4901482;29;20470;-88
2022/09/11 12:49:07;;;;;;;8.48;4.15;;;21.20;99.90;;;;;;4902013;29;20272;-88
2022/09/11 12:51:41;;;;;;;7.55;4.70;;;21.40;99.90;;;;;;4901266;29;20028;-88
2022/09/11 12:54:41;;;;;;;9.63;5.15;;;21.60;99.80;;;;;;4901457;29;20071;-88
2022/09/11 12:57:34;;;;;;;9.63;5.05;;;21.60;99.10;;;;;;4901533;29;20024;-89
2022/09/11 13:00:09;;;;;;;7.85;5.00;;;21.60;98.30;;;;;;4900637;29;20213;-89
2022/09/11 13:02:42;;;;;;;8.20;5.40;;;21.40;97.90;;;;;;4961846;28;20077;-89
2022/09/11 13:05:19;;;;;;;11.25;6.70;;;21.10;98.10;;;;;;4975939;28;20031;-90
2022/09/11 13:07:50;;;;;;;11.52;7.30;;;20.80;97.90;;;;;;4979333;28;20051;-90